sensor_id;sensor_type;location;lat;lon;timestamp;pressure;altitude;pressure_sealevel;temperature;humidity
36748;BME280;22716;51.556;5.080;2023-02-14T00:01:55;102709.97;;;6.32;100.00
36748;BME280;22716;51.556;5.080;2023-02-14T00:04:24;102707.09;;;6.24;100.00
36748;BME280;22716;51.556;5.080;2023-02-14T00:06:52;102706.97;;;6.21;100.00
36748;BME280;22716;51.556;5.080;2023-02-14T00:09:21;102706.19;;;6.24;100.00
36748;BME280;22716;51.556;5.080;2023-02-14T00:11:50;102707.81;;;6.20;100.00
36748;BME280;22716;51.556;5.080;2023-02-14T00:14:19;102711.28;;;6.20;100.00
36748;BME280;22716;51.556;5.080;2023-02-14T00:17:03;102709.63;;;6.22;100.00
36748;BME280;22716;51.556;5.080;2023-02-14T00:19:32;102708.69;;;6.20;100.00
36748;BME280;22716;51.556;5.080;2023-02-14T00:22:02;102702.59;;;6.20;100.00
36748;BME280;22716;51.556;5.080;2023-02-14T00:24:32;102697.47;;;6.22;100.00
36748;BME280;22716;51.556;5.080;2023-02-14T00:27:00;102704.31;;;6.19;100.00
36748;BME280;22716;51.556;5.080;2023-02-14T00:29:30;102694.50;;;6.12;100.00
36748;BME280;22716;51.556;5.080;2023-02-14T00:32:00;102702.31;;;6.12;100.00
36748;BME280;22716;51.556;5.080;2023-02-14T00:34:31;102694.16;;;6.03;100.00
36748;BME280;22716;51.556;5.080;2023-02-14T00:37:01;102684.44;;;5.98;100.00
36748;BME280;22716;51.556;5.080;2023-02-14T00:39:30;102686.91;;;5.95;100.00
36748;BME280;22716;51.556;5.080;2023-02-14T00:41:58;102691.22;;;5.94;100.00
36748;BME280;22716;51.556;5.080;2023-02-14T00:44:27;102686.13;;;5.97;100.00
36748;BME280;22716;51.556;5.080;2023-02-14T00:46:56;102677.28;;;5.92;100.00
36748;BME280;22716;51.556;5.080;2023-02-14T00:49:25;102682.72;;;5.98;100.00
36748;BME280;22716;51.556;5.080;2023-02-14T00:51:56;102680.16;;;6.00;100.00
36748;BME280;22716;51.556;5.080;2023-02-14T00:54:25;102681.81;;;5.98;100.00
36748;BME280;22716;51.556;5.080;2023-02-14T00:56:54;102680.94;;;5.97;100.00
36748;BME280;22716;51.556;5.080;2023-02-14T00:59:22;102664.88;;;5.85;100.00
36748;BME280;22716;51.556;5.080;2023-02-14T01:01:51;102679.94;;;5.94;100.00
36748;BME280;22716;51.556;5.080;2023-02-14T01:04:20;102674.44;;;5.86;100.00
36748;BME280;22716;51.556;5.080;2023-02-14T01:06:48;102681.97;;;5.80;100.00
36748;BME280;22716;51.556;5.080;2023-02-14T01:09:20;102683.69;;;5.80;100.00
36748;BME280;22716;51.556;5.080;2023-02-14T01:11:48;102687.13;;;5.79;100.00
36748;BME280;22716;51.556;5.080;2023-02-14T01:14:17;102685.25;;;5.75;100.00
36748;BME280;22716;51.556;5.080;2023-02-14T01:16:46;102677.19;;;5.69;100.00
36748;BME280;22716;51.556;5.080;2023-02-14T01:19:14;102684.03;;;5.66;100.00
36748;BME280;22716;51.556;5.080;2023-02-14T01:21:43;102670.63;;;5.56;100.00
36748;BME280;22716;51.556;5.080;2023-02-14T01:24:11;102675.84;;;5.56;100.00
36748;BME280;22716;51.556;5.080;2023-02-14T01:26:43;102667.88;;;5.51;100.00
36748;BME280;22716;51.556;5.080;2023-02-14T01:29:11;102666.75;;;5.45;100.00
36748;BME280;22716;51.556;5.080;2023-02-14T01:31:40;102682.34;;;5.45;100.00
36748;BME280;22716;51.556;5.080;2023-02-14T01:34:09;102680.13;;;5.33;100.00
36748;BME280;22716;51.556;5.080;2023-02-14T01:36:38;102682.75;;;5.33;100.00
36748;BME280;22716;51.556;5.080;2023-02-14T01:39:11;102687.94;;;5.33;100.00
36748;BME280;22716;51.556;5.080;2023-02-14T01:41:46;102686.91;;;5.30;100.00
36748;BME280;22716;51.556;5.080;2023-02-14T01:47:16;102686.75;;;5.25;100.00
36748;BME280;22716;51.556;5.080;2023-02-14T01:49:48;102690.09;;;5.23;100.00
36748;BME280;22716;51.556;5.080;2023-02-14T01:52:23;102685.78;;;5.23;100.00
36748;BME280;22716;51.556;5.080;2023-02-14T01:54:56;102675.78;;;5.12;100.00
36748;BME280;22716;51.556;5.080;2023-02-14T01:57:33;102684.75;;;5.20;100.00
36748;BME280;22716;51.556;5.080;2023-02-14T02:00:08;102692.81;;;5.26;100.00
36748;BME280;22716;51.556;5.080;2023-02-14T02:02:50;102676.88;;;5.17;100.00
36748;BME280;22716;51.556;5.080;2023-02-14T02:05:19;102685.59;;;5.19;100.00
36748;BME280;22716;51.556;5.080;2023-02-14T02:07:49;102682.00;;;5.15;100.00
36748;BME280;22716;51.556;5.080;2023-02-14T02:10:18;102686.31;;;5.15;100.00
36748;BME280;22716;51.556;5.080;2023-02-14T02:12:51;102677.50;;;5.11;100.00
36748;BME280;22716;51.556;5.080;2023-02-14T02:15:23;102673.94;;;5.09;100.00
36748;BME280;22716;51.556;5.080;2023-02-14T02:18:01;102678.22;;;5.07;100.00
36748;BME280;22716;51.556;5.080;2023-02-14T02:21:01;102674.75;;;5.08;100.00
36748;BME280;22716;51.556;5.080;2023-02-14T02:27:04;102677.19;;;5.03;100.00
36748;BME280;22716;51.556;5.080;2023-02-14T02:30:01;102670.03;;;4.98;100.00
36748;BME280;22716;51.556;5.080;2023-02-14T02:35:55;102668.31;;;4.98;100.00
36748;BME280;22716;51.556;5.080;2023-02-14T02:38:39;102648.88;;;4.89;100.00
36748;BME280;22716;51.556;5.080;2023-02-14T02:41:29;102656.09;;;4.96;100.00
36748;BME280;22716;51.556;5.080;2023-02-14T02:44:10;102652.41;;;4.91;100.00
36748;BME280;22716;51.556;5.080;2023-02-14T02:46:48;102656.59;;;4.87;100.00
36748;BME280;22716;51.556;5.080;2023-02-14T02:49:39;102658.13;;;4.82;100.00
36748;BME280;22716;51.556;5.080;2023-02-14T02:52:28;102645.63;;;4.74;100.00
36748;BME280;22716;51.556;5.080;2023-02-14T02:55:16;102650.69;;;4.71;100.00
36748;BME280;22716;51.556;5.080;2023-02-14T02:57:48;102647.16;;;4.69;100.00
36748;BME280;22716;51.556;5.080;2023-02-14T03:00:17;102647.78;;;4.63;100.00
36748;BME280;22716;51.556;5.080;2023-02-14T03:02:49;102637.84;;;4.53;100.00
36748;BME280;22716;51.556;5.080;2023-02-14T03:05:33;102647.66;;;4.60;100.00
36748;BME280;22716;51.556;5.080;2023-02-14T03:08:05;102651.03;;;4.58;100.00
36748;BME280;22716;51.556;5.080;2023-02-14T03:10:36;102648.94;;;4.49;100.00
36748;BME280;22716;51.556;5.080;2023-02-14T03:16:52;102653.22;;;4.48;100.00
36748;BME280;22716;51.556;5.080;2023-02-14T03:19:35;102652.97;;;4.42;100.00
36748;BME280;22716;51.556;5.080;2023-02-14T03:22:32;102662.38;;;4.40;100.00
36748;BME280;22716;51.556;5.080;2023-02-14T03:25:11;102652.75;;;4.38;100.00
36748;BME280;22716;51.556;5.080;2023-02-14T03:27:48;102652.69;;;4.36;100.00
36748;BME280;22716;51.556;5.080;2023-02-14T03:30:28;102651.66;;;4.33;100.00
36748;BME280;22716;51.556;5.080;2023-02-14T03:33:05;102647.50;;;4.36;100.00
36748;BME280;22716;51.556;5.080;2023-02-14T03:35:43;102642.09;;;4.32;100.00
36748;BME280;22716;51.556;5.080;2023-02-14T03:38:20;102632.28;;;4.25;100.00
36748;BME280;22716;51.556;5.080;2023-02-14T03:40:55;102662.19;;;4.36;100.00
36748;BME280;22716;51.556;5.080;2023-02-14T03:43:29;102664.63;;;4.33;100.00
36748;BME280;22716;51.556;5.080;2023-02-14T03:46:03;102658.38;;;4.28;100.00
36748;BME280;22716;51.556;5.080;2023-02-14T03:48:33;102652.34;;;4.29;100.00
36748;BME280;22716;51.556;5.080;2023-02-14T03:51:03;102645.19;;;4.23;100.00
36748;BME280;22716;51.556;5.080;2023-02-14T03:53:38;102654.00;;;4.27;100.00
36748;BME280;22716;51.556;5.080;2023-02-14T03:56:14;102657.22;;;4.21;100.00
36748;BME280;22716;51.556;5.080;2023-02-14T03:58:48;102665.75;;;4.19;100.00
36748;BME280;22716;51.556;5.080;2023-02-14T04:01:21;102654.16;;;4.11;100.00
36748;BME280;22716;51.556;5.080;2023-02-14T04:03:53;102661.09;;;4.12;100.00
36748;BME280;22716;51.556;5.080;2023-02-14T04:06:23;102655.91;;;4.12;100.00
36748;BME280;22716;51.556;5.080;2023-02-14T04:08:52;102659.13;;;4.06;100.00
36748;BME280;22716;51.556;5.080;2023-02-14T04:11:23;102657.28;;;4.04;100.00
36748;BME280;22716;51.556;5.080;2023-02-14T04:13:52;102664.13;;;4.02;100.00
36748;BME280;22716;51.556;5.080;2023-02-14T04:16:21;102657.00;;;3.97;100.00
36748;BME280;22716;51.556;5.080;2023-02-14T04:18:49;102651.69;;;3.94;100.00
36748;BME280;22716;51.556;5.080;2023-02-14T04:21:31;102661.16;;;3.94;100.00
36748;BME280;22716;51.556;5.080;2023-02-14T04:24:00;102668.88;;;3.92;100.00
36748;BME280;22716;51.556;5.080;2023-02-14T04:26:31;102663.56;;;3.89;100.00
36748;BME280;22716;51.556;5.080;2023-02-14T04:29:00;102663.44;;;3.86;100.00
36748;BME280;22716;51.556;5.080;2023-02-14T04:31:28;102662.53;;;3.86;100.00
36748;BME280;22716;51.556;5.080;2023-02-14T04:33:57;102667.66;;;3.84;100.00
36748;BME280;22716;51.556;5.080;2023-02-14T04:36:26;102648.38;;;3.79;100.00
36748;BME280;22716;51.556;5.080;2023-02-14T04:38:54;102658.75;;;3.79;100.00
36748;BME280;22716;51.556;5.080;2023-02-14T04:41:23;102665.72;;;3.80;100.00
36748;BME280;22716;51.556;5.080;2023-02-14T04:43:55;102659.50;;;3.77;100.00
36748;BME280;22716;51.556;5.080;2023-02-14T04:46:23;102657.69;;;3.74;100.00
36748;BME280;22716;51.556;5.080;2023-02-14T04:48:53;102650.56;;;3.70;100.00
36748;BME280;22716;51.556;5.080;2023-02-14T04:51:22;102647.03;;;3.68;100.00
36748;BME280;22716;51.556;5.080;2023-02-14T04:53:50;102627.38;;;3.54;100.00
36748;BME280;22716;51.556;5.080;2023-02-14T04:56:19;102645.97;;;3.65;100.00
36748;BME280;22716;51.556;5.080;2023-02-14T04:58:48;102628.16;;;3.53;100.00
36748;BME280;22716;51.556;5.080;2023-02-14T05:01:19;102642.34;;;3.61;100.00
36748;BME280;22716;51.556;5.080;2023-02-14T05:03:47;102632.41;;;3.51;100.00
36748;BME280;22716;51.556;5.080;2023-02-14T05:06:16;102644.09;;;3.61;100.00
36748;BME280;22716;51.556;5.080;2023-02-14T05:08:45;102637.88;;;3.57;100.00
36748;BME280;22716;51.556;5.080;2023-02-14T05:11:14;102641.22;;;3.55;100.00
36748;BME280;22716;51.556;5.080;2023-02-14T05:13:42;102648.09;;;3.54;100.00
36748;BME280;22716;51.556;5.080;2023-02-14T05:16:11;102625.16;;;3.44;100.00
36748;BME280;22716;51.556;5.080;2023-02-14T05:18:42;102647.19;;;3.54;100.00
36748;BME280;22716;51.556;5.080;2023-02-14T05:21:11;102640.19;;;3.51;100.00
36748;BME280;22716;51.556;5.080;2023-02-14T05:23:40;102645.41;;;3.53;100.00
36748;BME280;22716;51.556;5.080;2023-02-14T05:26:09;102631.47;;;3.49;100.00
36748;BME280;22716;51.556;5.080;2023-02-14T05:28:38;102632.25;;;3.48;100.00
36748;BME280;22716;51.556;5.080;2023-02-14T05:31:08;102639.22;;;3.49;100.00
36748;BME280;22716;51.556;5.080;2023-02-14T05:33:37;102633.16;;;3.49;100.00
36748;BME280;22716;51.556;5.080;2023-02-14T05:36:09;102634.84;;;3.48;100.00
36748;BME280;22716;51.556;5.080;2023-02-14T05:38:38;102636.84;;;3.54;100.00
36748;BME280;22716;51.556;5.080;2023-02-14T05:41:06;102641.06;;;3.52;100.00
36748;BME280;22716;51.556;5.080;2023-02-14T05:43:35;102643.72;;;3.53;100.00
36748;BME280;22716;51.556;5.080;2023-02-14T05:46:04;102638.47;;;3.52;100.00
36748;BME280;22716;51.556;5.080;2023-02-14T05:48:33;102640.19;;;3.51;100.00
36748;BME280;22716;51.556;5.080;2023-02-14T05:51:03;102642.78;;;3.51;100.00
36748;BME280;22716;51.556;5.080;2023-02-14T05:53:35;102640.09;;;3.50;100.00
36748;BME280;22716;51.556;5.080;2023-02-14T05:56:05;102638.25;;;3.47;100.00
36748;BME280;22716;51.556;5.080;2023-02-14T05:58:34;102640.69;;;3.44;100.00
36748;BME280;22716;51.556;5.080;2023-02-14T06:01:03;102643.38;;;3.46;100.00
36748;BME280;22716;51.556;5.080;2023-02-14T06:03:31;102651.06;;;3.44;100.00
36748;BME280;22716;51.556;5.080;2023-02-14T06:06:00;102644.19;;;3.45;100.00
36748;BME280;22716;51.556;5.080;2023-02-14T06:08:29;102637.28;;;3.45;100.00
36748;BME280;22716;51.556;5.080;2023-02-14T06:11:00;102642.78;;;3.51;100.00
36748;BME280;22716;51.556;5.080;2023-02-14T06:13:29;102641.13;;;3.53;100.00
36748;BME280;22716;51.556;5.080;2023-02-14T06:15:57;102636.84;;;3.54;100.00
36748;BME280;22716;51.556;5.080;2023-02-14T06:18:26;102644.69;;;3.55;100.00
36748;BME280;22716;51.556;5.080;2023-02-14T06:20:55;102642.16;;;3.57;100.00
36748;BME280;22716;51.556;5.080;2023-02-14T06:23:24;102647.50;;;3.60;100.00
36748;BME280;22716;51.556;5.080;2023-02-14T06:25:53;102645.69;;;3.59;100.00
36748;BME280;22716;51.556;5.080;2023-02-14T06:28:24;102634.34;;;3.55;100.00
36748;BME280;22716;51.556;5.080;2023-02-14T06:30:53;102645.78;;;3.60;100.00
36748;BME280;22716;51.556;5.080;2023-02-14T06:33:21;102651.78;;;3.59;100.00
36748;BME280;22716;51.556;5.080;2023-02-14T06:35:52;102653.56;;;3.60;100.00
36748;BME280;22716;51.556;5.080;2023-02-14T06:38:20;102652.53;;;3.57;100.00
36748;BME280;22716;51.556;5.080;2023-02-14T06:40:49;102654.22;;;3.56;100.00
36748;BME280;22716;51.556;5.080;2023-02-14T06:43:18;102650.75;;;3.56;100.00
36748;BME280;22716;51.556;5.080;2023-02-14T06:45:49;102649.94;;;3.57;100.00
36748;BME280;22716;51.556;5.080;2023-02-14T06:48:18;102651.72;;;3.58;100.00
36748;BME280;22716;51.556;5.080;2023-02-14T06:50:47;102629.72;;;3.50;100.00
36748;BME280;22716;51.556;5.080;2023-02-14T06:53:17;102646.53;;;3.58;100.00
36748;BME280;22716;51.556;5.080;2023-02-14T06:55:46;102636.84;;;3.54;100.00
36748;BME280;22716;51.556;5.080;2023-02-14T06:58:14;102645.03;;;3.63;100.00
36748;BME280;22716;51.556;5.080;2023-02-14T07:00:43;102640.66;;;3.62;100.00
36748;BME280;22716;51.556;5.080;2023-02-14T07:03:15;102643.34;;;3.63;100.00
36748;BME280;22716;51.556;5.080;2023-02-14T07:05:43;102652.81;;;3.63;100.00
36748;BME280;22716;51.556;5.080;2023-02-14T07:08:12;102644.16;;;3.62;100.00
36748;BME280;22716;51.556;5.080;2023-02-14T07:10:41;102648.53;;;3.63;100.00
36748;BME280;22716;51.556;5.080;2023-02-14T07:13:10;102647.78;;;3.66;100.00
36748;BME280;22716;51.556;5.080;2023-02-14T07:15:38;102644.28;;;3.65;100.00
36748;BME280;22716;51.556;5.080;2023-02-14T07:18:07;102642.66;;;3.67;100.00
36748;BME280;22716;51.556;5.080;2023-02-14T07:20:38;102642.66;;;3.67;100.00
36748;BME280;22716;51.556;5.080;2023-02-14T07:23:09;102654.94;;;3.71;100.00
36748;BME280;22716;51.556;5.080;2023-02-14T07:25:38;102645.47;;;3.72;100.00
36748;BME280;22716;51.556;5.080;2023-02-14T07:28:07;102644.72;;;3.74;100.00
36748;BME280;22716;51.556;5.080;2023-02-14T07:30:36;102641.44;;;3.78;100.00
36748;BME280;22716;51.556;5.080;2023-02-14T07:33:04;102649.38;;;3.81;100.00
36748;BME280;22716;51.556;5.080;2023-02-14T07:35:34;102651.13;;;3.82;100.00
36748;BME280;22716;51.556;5.080;2023-02-14T07:38:05;102646.84;;;3.83;100.00
36748;BME280;22716;51.556;5.080;2023-02-14T07:40:34;102654.94;;;3.90;100.00
36748;BME280;22716;51.556;5.080;2023-02-14T07:43:03;102653.34;;;3.92;100.00
36748;BME280;22716;51.556;5.080;2023-02-14T07:45:32;102652.56;;;3.95;100.00
36748;BME280;22716;51.556;5.080;2023-02-14T07:48:01;102651.00;;;3.99;100.00
36748;BME280;22716;51.556;5.080;2023-02-14T07:50:30;102650.31;;;4.03;100.00
36748;BME280;22716;51.556;5.080;2023-02-14T07:52:59;102641.78;;;4.05;100.00
36748;BME280;22716;51.556;5.080;2023-02-14T07:55:30;102652.50;;;4.13;100.00
36748;BME280;22716;51.556;5.080;2023-02-14T07:57:59;102659.81;;;4.21;100.00
36748;BME280;22716;51.556;5.080;2023-02-14T08:00:28;102644.44;;;4.26;100.00
36748;BME280;22716;51.556;5.080;2023-02-14T08:02:56;102647.09;;;4.27;100.00
36748;BME280;22716;51.556;5.080;2023-02-14T08:05:25;102640.84;;;4.22;100.00
36748;BME280;22716;51.556;5.080;2023-02-14T08:07:54;102655.41;;;4.39;100.00
36748;BME280;22716;51.556;5.080;2023-02-14T08:10:22;102655.59;;;4.44;100.00
36748;BME280;22716;51.556;5.080;2023-02-14T08:12:54;102650.63;;;4.48;100.00
36748;BME280;22716;51.556;5.080;2023-02-14T08:15:31;102659.63;;;4.57;100.00
36748;BME280;22716;51.556;5.080;2023-02-14T08:18:14;102659.88;;;4.63;100.00
36748;BME280;22716;51.556;5.080;2023-02-14T08:20:43;102667.00;;;4.67;100.00
36748;BME280;22716;51.556;5.080;2023-02-14T08:23:13;102659.38;;;4.71;100.00
36748;BME280;22716;51.556;5.080;2023-02-14T08:25:42;102661.47;;;4.80;100.00
36748;BME280;22716;51.556;5.080;2023-02-14T08:28:13;102658.25;;;4.85;100.00
36748;BME280;22716;51.556;5.080;2023-02-14T08:30:42;102663.78;;;4.93;100.00
36748;BME280;22716;51.556;5.080;2023-02-14T08:33:12;102662.94;;;4.94;100.00
36748;BME280;22716;51.556;5.080;2023-02-14T08:35:40;102657.22;;;5.02;100.00
36748;BME280;22716;51.556;5.080;2023-02-14T08:38:09;102653.94;;;5.06;100.00
36748;BME280;22716;51.556;5.080;2023-02-14T08:40:38;102649.88;;;5.13;100.00
36748;BME280;22716;51.556;5.080;2023-02-14T08:43:07;102653.53;;;5.18;100.00
36748;BME280;22716;51.556;5.080;2023-02-14T08:45:39;102651.19;;;5.24;100.00
36748;BME280;22716;51.556;5.080;2023-02-14T08:48:09;102654.06;;;5.32;100.00
36748;BME280;22716;51.556;5.080;2023-02-14T08:50:39;102652.56;;;5.37;100.00
36748;BME280;22716;51.556;5.080;2023-02-14T08:53:09;102648.34;;;5.40;100.00
36748;BME280;22716;51.556;5.080;2023-02-14T08:55:39;102652.16;;;5.48;100.00
36748;BME280;22716;51.556;5.080;2023-02-14T08:58:08;102646.34;;;5.55;100.00
36748;BME280;22716;51.556;5.080;2023-02-14T09:00:39;102625.91;;;5.42;100.00
36748;BME280;22716;51.556;5.080;2023-02-14T09:03:08;102636.78;;;5.54;100.00
36748;BME280;22716;51.556;5.080;2023-02-14T09:05:38;102641.50;;;5.64;100.00
36748;BME280;22716;51.556;5.080;2023-02-14T09:08:06;102647.97;;;5.76;100.00
36748;BME280;22716;51.556;5.080;2023-02-14T09:10:36;102641.25;;;5.81;100.00
36748;BME280;22716;51.556;5.080;2023-02-14T09:13:04;102647.69;;;5.90;100.00
36748;BME280;22716;51.556;5.080;2023-02-14T09:15:33;102649.66;;;5.96;100.00
36748;BME280;22716;51.556;5.080;2023-02-14T09:18:05;102655.97;;;6.02;100.00
36748;BME280;22716;51.556;5.080;2023-02-14T09:20:33;102655.19;;;6.05;100.00
36748;BME280;22716;51.556;5.080;2023-02-14T09:23:02;102648.69;;;6.16;100.00
36748;BME280;22716;51.556;5.080;2023-02-14T09:25:31;102641.84;;;6.19;100.00
36748;BME280;22716;51.556;5.080;2023-02-14T09:28:00;102636.00;;;6.25;100.00
36748;BME280;22716;51.556;5.080;2023-02-14T09:30:28;102644.94;;;6.33;100.00
36748;BME280;22716;51.556;5.080;2023-02-14T09:32:57;102639.97;;;6.39;100.00
36748;BME280;22716;51.556;5.080;2023-02-14T09:35:31;102646.28;;;6.46;100.00
36748;BME280;22716;51.556;5.080;2023-02-14T09:38:13;102640.31;;;6.50;100.00
36748;BME280;22716;51.556;5.080;2023-02-14T09:40:42;102650.22;;;6.60;100.00
36748;BME280;22716;51.556;5.080;2023-02-14T09:43:16;102632.09;;;6.63;100.00
36748;BME280;22716;51.556;5.080;2023-02-14T09:45:49;102638.66;;;6.77;100.00
36748;BME280;22716;51.556;5.080;2023-02-14T09:48:24;102640.69;;;6.86;100.00
36748;BME280;22716;51.556;5.080;2023-02-14T09:51:01;102641.81;;;6.94;100.00
36748;BME280;22716;51.556;5.080;2023-02-14T09:53:33;102642.91;;;7.00;100.00
36748;BME280;22716;51.556;5.080;2023-02-14T09:56:08;102625.47;;;6.99;100.00
36748;BME280;22716;51.556;5.080;2023-02-14T09:58:43;102640.81;;;7.17;100.00
36748;BME280;22716;51.556;5.080;2023-02-14T10:01:17;102630.59;;;7.23;100.00
36748;BME280;22716;51.556;5.080;2023-02-14T10:04:05;102630.84;;;7.30;100.00
36748;BME280;22716;51.556;5.080;2023-02-14T10:06:48;102617.06;;;7.34;100.00
36748;BME280;22716;51.556;5.080;2023-02-14T10:09:34;102616.41;;;7.42;100.00
36748;BME280;22716;51.556;5.080;2023-02-14T10:12:22;102623.75;;;7.55;100.00
36748;BME280;22716;51.556;5.080;2023-02-14T10:14:52;102620.44;;;7.60;100.00
36748;BME280;22716;51.556;5.080;2023-02-14T10:17:29;102619.84;;;7.69;100.00
36748;BME280;22716;51.556;5.080;2023-02-14T10:20:15;102620.16;;;7.79;100.00
36748;BME280;22716;51.556;5.080;2023-02-14T10:22:51;102632.56;;;7.86;100.00
36748;BME280;22716;51.556;5.080;2023-02-14T10:25:26;102621.31;;;7.89;100.00
36748;BME280;22716;51.556;5.080;2023-02-14T10:27:57;102622.44;;;7.99;100.00
36748;BME280;22716;51.556;5.080;2023-02-14T10:30:36;102615.56;;;8.02;100.00
36748;BME280;22716;51.556;5.080;2023-02-14T10:33:12;102622.78;;;8.11;100.00
36748;BME280;22716;51.556;5.080;2023-02-14T10:35:46;102618.63;;;8.17;100.00
36748;BME280;22716;51.556;5.080;2023-02-14T10:38:35;102611.63;;;8.16;100.00
36748;BME280;22716;51.556;5.080;2023-02-14T10:41:24;102622.44;;;8.28;100.00
36748;BME280;22716;51.556;5.080;2023-02-14T10:44:05;102610.44;;;8.35;100.00
36748;BME280;22716;51.556;5.080;2023-02-14T10:46:43;102609.69;;;8.39;100.00
36748;BME280;22716;51.556;5.080;2023-02-14T10:49:27;102599.41;;;8.47;100.00
36748;BME280;22716;51.556;5.080;2023-02-14T10:52:04;102595.16;;;8.50;100.00
36748;BME280;22716;51.556;5.080;2023-02-14T10:54:41;102598.91;;;8.60;100.00
36748;BME280;22716;51.556;5.080;2023-02-14T10:57:14;102596.38;;;8.64;100.00
36748;BME280;22716;51.556;5.080;2023-02-14T10:59:46;102599.22;;;8.72;100.00
36748;BME280;22716;51.556;5.080;2023-02-14T11:02:21;102594.09;;;8.78;100.00
36748;BME280;22716;51.556;5.080;2023-02-14T11:04:52;102593.53;;;8.89;100.00
36748;BME280;22716;51.556;5.080;2023-02-14T11:07:21;102591.19;;;9.00;100.00
36748;BME280;22716;51.556;5.080;2023-02-14T11:09:52;102594.91;;;9.11;100.00
36748;BME280;22716;51.556;5.080;2023-02-14T11:12:32;102589.06;;;9.21;100.00
36748;BME280;22716;51.556;5.080;2023-02-14T11:15:16;102590.13;;;9.29;100.00
36748;BME280;22716;51.556;5.080;2023-02-14T11:17:47;102592.03;;;9.36;100.00
36748;BME280;22716;51.556;5.080;2023-02-14T11:20:23;102592.25;;;9.47;100.00
36748;BME280;22716;51.556;5.080;2023-02-14T11:22:52;102587.16;;;9.54;100.00
36748;BME280;22716;51.556;5.080;2023-02-14T11:25:26;102583.91;;;9.65;100.00
36748;BME280;22716;51.556;5.080;2023-02-14T11:27:59;102577.22;;;9.77;100.00
36748;BME280;22716;51.556;5.080;2023-02-14T11:30:32;102582.63;;;9.88;100.00
36748;BME280;22716;51.556;5.080;2023-02-14T11:33:03;102577.53;;;9.95;100.00
36748;BME280;22716;51.556;5.080;2023-02-14T11:35:32;102583.06;;;10.09;100.00
36748;BME280;22716;51.556;5.080;2023-02-14T11:38:03;102579.78;;;10.19;100.00
36748;BME280;22716;51.556;5.080;2023-02-14T11:40:36;102577.38;;;10.30;100.00
36748;BME280;22716;51.556;5.080;2023-02-14T11:43:18;102564.50;;;10.43;100.00
36748;BME280;22716;51.556;5.080;2023-02-14T11:45:48;102569.13;;;10.56;100.00
36748;BME280;22716;51.556;5.080;2023-02-14T11:48:19;102562.31;;;10.69;100.00
36748;BME280;22716;51.556;5.080;2023-02-14T11:50:54;102565.97;;;10.79;100.00
36748;BME280;22716;51.556;5.080;2023-02-14T11:53:26;102560.78;;;10.83;100.00
36748;BME280;22716;51.556;5.080;2023-02-14T11:55:59;102552.28;;;10.96;100.00
36748;BME280;22716;51.556;5.080;2023-02-14T11:58:31;102550.75;;;11.12;100.00
36748;BME280;22716;51.556;5.080;2023-02-14T12:01:01;102544.81;;;11.23;100.00
36748;BME280;22716;51.556;5.080;2023-02-14T12:03:36;102532.66;;;11.32;99.98
36748;BME280;22716;51.556;5.080;2023-02-14T12:06:07;102538.94;;;11.43;99.72
36748;BME280;22716;51.556;5.080;2023-02-14T12:08:36;102526.78;;;11.51;99.05
36748;BME280;22716;51.556;5.080;2023-02-14T12:11:20;102529.59;;;11.66;98.11
36748;BME280;22716;51.556;5.080;2023-02-14T12:13:53;102531.50;;;11.77;97.46
36748;BME280;22716;51.556;5.080;2023-02-14T12:16:27;102529.88;;;11.87;96.61
36748;BME280;22716;51.556;5.080;2023-02-14T12:19:01;102528.28;;;12.03;96.40
36748;BME280;22716;51.556;5.080;2023-02-14T12:21:38;102525.78;;;12.15;95.60
36748;BME280;22716;51.556;5.080;2023-02-14T12:24:17;102521.53;;;12.29;94.42
36748;BME280;22716;51.556;5.080;2023-02-14T12:27:03;102519.81;;;12.34;94.13
36748;BME280;22716;51.556;5.080;2023-02-14T12:29:37;102508.59;;;12.52;93.69
36748;BME280;22716;51.556;5.080;2023-02-14T12:32:15;102479.59;;;12.41;93.27
36748;BME280;22716;51.556;5.080;2023-02-14T12:34:44;102478.84;;;12.56;93.18
36748;BME280;22716;51.556;5.080;2023-02-14T12:37:23;102477.91;;;12.51;92.43
36748;BME280;22716;51.556;5.080;2023-02-14T12:40:09;102491.88;;;12.45;92.41
36748;BME280;22716;51.556;5.080;2023-02-14T12:42:51;102490.03;;;12.33;92.52
36748;BME280;22716;51.556;5.080;2023-02-14T12:45:31;102479.41;;;12.20;92.31
36748;BME280;22716;51.556;5.080;2023-02-14T12:48:14;102481.94;;;12.11;92.71
36748;BME280;22716;51.556;5.080;2023-02-14T12:50:51;102484.53;;;12.05;93.07
36748;BME280;22716;51.556;5.080;2023-02-14T12:53:44;102472.19;;;11.98;93.09
36748;BME280;22716;51.556;5.080;2023-02-14T12:56:20;102468.56;;;11.87;93.34
36748;BME280;22716;51.556;5.080;2023-02-14T12:59:05;102469.44;;;11.83;93.20
36748;BME280;22716;51.556;5.080;2023-02-14T13:01:58;102467.63;;;11.80;93.14
36748;BME280;22716;51.556;5.080;2023-02-14T13:04:48;102454.44;;;11.72;93.28
36748;BME280;22716;51.556;5.080;2023-02-14T13:07:28;102454.28;;;11.63;93.19
36748;BME280;22716;51.556;5.080;2023-02-14T13:10:12;102456.91;;;11.63;93.43
36748;BME280;22716;51.556;5.080;2023-02-14T13:12:45;102449.94;;;11.62;93.44
36748;BME280;22716;51.556;5.080;2023-02-14T13:15:25;102436.78;;;11.59;93.78
36748;BME280;22716;51.556;5.080;2023-02-14T13:18:04;102449.03;;;11.63;93.45
36748;BME280;22716;51.556;5.080;2023-02-14T13:20:43;102432.41;;;11.63;93.22
36748;BME280;22716;51.556;5.080;2023-02-14T13:23:17;102438.56;;;11.65;92.98
36748;BME280;22716;51.556;5.080;2023-02-14T13:25:52;102425.41;;;11.63;92.94
36748;BME280;22716;51.556;5.080;2023-02-14T13:28:22;102424.53;;;11.61;93.09
36748;BME280;22716;51.556;5.080;2023-02-14T13:30:54;102428.00;;;11.60;92.95
36748;BME280;22716;51.556;5.080;2023-02-14T13:33:30;102435.84;;;11.57;93.26